Bandar Lengeh, Iran
Current Conditions -  °F | °C
As of 9:00 PM on Sunday 25 Jan 2015 (Local Time) from OIBL Reporting Station
Clear Clear  
Wind Chill: 63°   Ceiling: Unl
Heat Index: 63°   Visibility: 6mi
Dew Point: 43°   Wind: 5mph
Humidity: 48%   Direction: 340°NNW
Pressure: 30.21"   Gusts: NA
Location:  26.56°N, 54.88°E
Report Text: OIBL 251800Z 34004KT CAVOK 17/06 Q1023
Loading
Personal Weather Stations






























Interactive Weather Map New forecast layout! Learn more

10-Day Weather Forecast

Advertisements
Track Severe Weather on mobile